»·PEaware :: COA5562 KSLC-KSFO

COA5562 :: KSLC-KSFO

FLIGHT INFORMATION

Flight Status: Arrived
Operator:
Continental Air Lines
More flights by this operator :: More flights under this callsign
Pilot: Andrew C. (28419)
Aircraft: BOEING 737-800
(B738)
More flights by this aircraft type
Origin: KSLC Salt Lake City Intl
United States
Destination: KSFO San Francisco Intl
United States
More flights between these airports :: More routes between these airports
Route: +DEZRT1 BAM J94 LLC LEGGS BDEGA3
File this flight plan on PilotEdge
Remarks: RMK / SIMBRIEF
Altitude:
(Current/Filed)
28,000ft
Speed:
(Current/Filed)
489kts
Departed: 13-Sep-20 05:19 PM
Arrived: 13-Sep-20 06:58 PM
Distance/Time
Traveled:
520nm/1:39
Distance/Time
To Go:
Arrived

Flight Plot

Page will automatically refresh every two minutes.

Flight plan parsing failed; only flown route is shown


Map Options




Map Legend


Flown Route
Filed Route
Departure Airport
Arrival Airport
Navaid (VOR, NDB)
Fix

Horizontal Profiles

Position Reports

Time Latitude Longitude Heading Altitude Ground
Speed
13-Sep-20 16:36 40.787962 -111.985175 72 4238ft 0kts
13-Sep-20 16:37 40.787962 -111.985175 72 4238ft 0kts
13-Sep-20 16:38 40.787962 -111.985175 72 4238ft 0kts
13-Sep-20 16:39 40.787962 -111.985176 72 4237ft 0kts
13-Sep-20 16:40 40.787962 -111.985176 72 4237ft 0kts
13-Sep-20 16:41 40.787962 -111.985176 72 4237ft 0kts
13-Sep-20 16:42 40.787962 -111.985176 72 4237ft 0kts
13-Sep-20 16:43 40.787962 -111.985176 72 4237ft 0kts
13-Sep-20 16:44 40.787962 -111.985176 72 4237ft 0kts
13-Sep-20 16:45 40.787962 -111.985176 72 4237ft 0kts
13-Sep-20 16:46 40.787962 -111.985176 72 4237ft 0kts
13-Sep-20 16:47 40.787962 -111.985176 72 4237ft 0kts
13-Sep-20 16:48 40.787962 -111.985176 72 4237ft 0kts
13-Sep-20 16:49 40.787962 -111.985176 72 4237ft 0kts
13-Sep-20 16:50 40.787962 -111.985176 72 4237ft 0kts
13-Sep-20 16:51 40.787962 -111.985176 72 4237ft 0kts
13-Sep-20 16:52 40.787962 -111.985176 72 4237ft 0kts
13-Sep-20 16:53 40.787962 -111.985176 72 4237ft 0kts
13-Sep-20 16:54 40.787962 -111.985176 72 4237ft 0kts
13-Sep-20 16:55 40.787962 -111.985176 72 4237ft 0kts
13-Sep-20 16:56 40.787962 -111.985176 72 4237ft 0kts
13-Sep-20 16:57 40.787962 -111.985176 72 4237ft 0kts
13-Sep-20 16:58 40.787962 -111.985176 72 4237ft 0kts
13-Sep-20 17:00 40.787962 -111.985176 72 4237ft 0kts
13-Sep-20 17:01 40.787962 -111.985176 72 4237ft 0kts
13-Sep-20 17:02 40.787962 -111.985176 72 4237ft 0kts
13-Sep-20 17:03 40.787962 -111.985176 72 4237ft 0kts
13-Sep-20 17:04 40.787962 -111.985176 72 4237ft 0kts
13-Sep-20 17:05 40.787962 -111.985176 72 4237ft 0kts
13-Sep-20 17:06 40.787962 -111.985176 72 4237ft 0kts
13-Sep-20 17:07 40.787962 -111.985176 72 4237ft 0kts
13-Sep-20 17:08 40.787818 -111.985542 76 4237ft 2kts
13-Sep-20 17:09 40.787611 -111.986196 18 4237ft 2kts
13-Sep-20 17:10 40.787439 -111.986173 338 4237ft 0kts
13-Sep-20 17:11 40.787857 -111.986378 339 4237ft 8kts
13-Sep-20 17:12 40.790272 -111.985305 24 4237ft 1kts
13-Sep-20 17:13 40.791417 -111.987895 262 4237ft 20kts
13-Sep-20 17:14 40.790350 -111.995088 175 4237ft 17kts
13-Sep-20 17:15 40.785106 -111.994450 174 4237ft 23kts
13-Sep-20 17:16 40.776912 -111.994064 175 4237ft 28kts
13-Sep-20 17:17 40.775369 -111.994016 230 4237ft 0kts
13-Sep-20 17:17 40.775221 -111.994454 255 4237ft 8kts
13-Sep-20 17:18 40.787815 -111.996980 355 4238ft 151kts
13-Sep-20 17:20 40.835766 -112.041393 305 5883ft 249kts
13-Sep-20 17:20 40.870434 -112.104585 305 8156ft 262kts
13-Sep-20 17:21 40.916025 -112.185481 292 9988ft 284kts
13-Sep-20 17:23 40.898544 -112.316793 252 10407ft 356kts
13-Sep-20 17:23 40.874685 -112.423708 255 12414ft 369kts
13-Sep-20 17:24 40.863522 -112.561115 265 14781ft 384kts
13-Sep-20 17:25 40.853235 -112.703161 263 14998ft 384kts
13-Sep-20 17:26 40.843271 -112.844605 267 15232ft 393kts
13-Sep-20 17:27 40.843763 -112.989528 269 17671ft 401kts
13-Sep-20 17:28 40.843912 -113.137962 269 20015ft 408kts
13-Sep-20 17:29 40.843509 -113.290474 269 22003ft 422kts
13-Sep-20 17:30 40.843338 -113.448298 269 23776ft 435kts
13-Sep-20 17:31 40.843199 -113.611547 269 25273ft 450kts
13-Sep-20 17:32 40.842935 -113.778083 268 26849ft 458kts
13-Sep-20 17:33 40.841690 -113.947697 268 28142ft 465kts
13-Sep-20 17:34 40.840167 -114.121929 268 28162ft 481kts
13-Sep-20 17:35 40.838787 -114.298436 268 28146ft 480kts
13-Sep-20 17:36 40.837245 -114.474866 268 28146ft 479kts
13-Sep-20 17:37 40.835493 -114.651199 267 28146ft 479kts
13-Sep-20 17:38 40.824085 -114.825257 260 28146ft 476kts
13-Sep-20 17:39 40.805419 -114.995550 260 28159ft 466kts
13-Sep-20 17:40 40.786580 -115.165765 260 28007ft 468kts
13-Sep-20 17:41 40.768981 -115.335510 261 27999ft 468kts
13-Sep-20 17:42 40.751235 -115.505476 260 27999ft 467kts
13-Sep-20 17:43 40.731385 -115.674578 259 27999ft 467kts
13-Sep-20 17:44 40.709555 -115.842851 258 27999ft 466kts
13-Sep-20 17:45 40.687165 -116.011063 259 28000ft 466kts
13-Sep-20 17:46 40.665746 -116.178660 259 27999ft 464kts
13-Sep-20 17:47 40.644594 -116.346729 259 27999ft 464kts
13-Sep-20 17:48 40.623468 -116.514263 259 27999ft 464kts
13-Sep-20 17:49 40.602185 -116.681716 258 28000ft 463kts
13-Sep-20 17:50 40.580761 -116.848444 258 27999ft 462kts
13-Sep-20 17:51 40.544983 -117.009722 250 28000ft 460kts
13-Sep-20 17:52 40.504523 -117.168927 250 27999ft 459kts
13-Sep-20 17:53 40.463327 -117.327613 250 27999ft 458kts
13-Sep-20 17:54 40.421832 -117.485819 249 27999ft 459kts
13-Sep-20 17:55 40.380064 -117.643835 249 28000ft 457kts
13-Sep-20 17:56 40.338052 -117.801563 249 28000ft 458kts
13-Sep-20 17:57 40.295890 -117.958921 249 27999ft 457kts
13-Sep-20 17:58 40.253619 -118.115920 249 28000ft 457kts
13-Sep-20 17:59 40.211095 -118.272891 249 27999ft 456kts
13-Sep-20 18:00 40.168457 -118.429337 249 27999ft 457kts
13-Sep-20 18:01 40.125543 -118.585687 248 27999ft 456kts
13-Sep-20 18:02 40.078136 -118.739343 246 28000ft 455kts
13-Sep-20 18:03 40.031240 -118.892280 247 27999ft 454kts
13-Sep-20 18:04 39.984634 -119.045685 247 28000ft 455kts
13-Sep-20 18:05 39.938036 -119.198987 247 27999ft 454kts
13-Sep-20 18:06 39.891440 -119.351625 247 28000ft 454kts
13-Sep-20 18:07 39.844556 -119.504452 247 28000ft 453kts
13-Sep-20 18:08 39.797483 -119.657054 247 28000ft 453kts
13-Sep-20 18:09 39.749983 -119.810096 247 28092ft 458kts
13-Sep-20 18:10 39.702054 -119.963801 247 28165ft 457kts
13-Sep-20 18:12 39.646132 -120.142210 247 28162ft 457kts
13-Sep-20 18:12 39.606061 -120.269399 247 28185ft 457kts
13-Sep-20 18:13 39.557844 -120.421614 247 28207ft 455kts
13-Sep-20 18:14 39.509471 -120.573366 247 28227ft 455kts
13-Sep-20 18:15 39.460812 -120.725047 246 28228ft 453kts
13-Sep-20 18:16 39.412285 -120.875441 246 28228ft 452kts
13-Sep-20 18:17 39.362939 -121.025222 240 28171ft 453kts
13-Sep-20 18:18 39.289695 -121.159001 232 27992ft 455kts
13-Sep-20 18:19 39.210712 -121.286961 230 27908ft 456kts
13-Sep-20 18:20 39.129827 -121.412691 230 27908ft 455kts
13-Sep-20 18:21 39.049933 -121.535180 230 27917ft 449kts
13-Sep-20 18:22 39.035887 -121.556623 230 27917ft 450kts
13-Sep-20 18:23 39.017605 -121.584497 230 27915ft 452kts
13-Sep-20 18:24 39.017605 -121.584497 230 27915ft 452kts
13-Sep-20 18:25 38.945869 -121.693542 229 27912ft 449kts
13-Sep-20 18:26 38.865607 -121.814983 229 27908ft 451kts
13-Sep-20 18:27 38.788139 -121.931834 229 27909ft 450kts
13-Sep-20 18:28 38.709063 -122.050665 229 27938ft 448kts
13-Sep-20 18:29 38.634407 -122.162276 229 27969ft 405kts
13-Sep-20 18:30 38.560787 -122.271958 229 27972ft 412kts
13-Sep-20 18:31 38.486453 -122.382418 229 27972ft 412kts
13-Sep-20 18:32 38.416818 -122.484667 229 27810ft 369kts
13-Sep-20 18:33 38.347193 -122.586810 229 26314ft 393kts
13-Sep-20 18:34 38.279173 -122.687288 228 24101ft 380kts
13-Sep-20 18:35 38.190047 -122.749323 185 21627ft 375kts
13-Sep-20 18:36 38.099694 -122.731262 168 19541ft 369kts
13-Sep-20 18:37 38.002808 -122.702991 168 17345ft 356kts
13-Sep-20 18:38 37.908760 -122.672097 157 15139ft 346kts
13-Sep-20 18:39 37.834543 -122.604944 142 13016ft 326kts
13-Sep-20 18:40 37.770157 -122.535698 140 11821ft 296kts
13-Sep-20 18:41 37.715311 -122.468981 122 11017ft 278kts
13-Sep-20 18:42 37.684611 -122.386687 117 10089ft 267kts
13-Sep-20 18:43 37.660151 -122.317253 118 9471ft 237kts
13-Sep-20 18:44 37.637558 -122.250176 118 8456ft 224kts
13-Sep-20 18:45 37.614461 -122.181944 118 7159ft 221kts
13-Sep-20 18:46 37.588779 -122.107207 118 5968ft 217kts
13-Sep-20 18:47 37.566863 -122.044713 117 4679ft 225kts
13-Sep-20 18:48 37.526924 -121.997950 171 4002ft 216kts
13-Sep-20 18:49 37.470522 -122.008312 239 4005ft 210kts
13-Sep-20 18:50 37.489035 -122.074026 303 4002ft 215kts
13-Sep-20 18:51 37.515927 -122.131138 293 3897ft 186kts
13-Sep-20 18:52 37.538255 -122.184444 294 2992ft 163kts
13-Sep-20 18:53 37.559575 -122.234882 295 2133ft 163kts
13-Sep-20 18:54 37.580007 -122.283270 297 1329ft 147kts
13-Sep-20 18:55 37.597852 -122.325387 298 592ft 133kts
13-Sep-20 18:57 37.614786 -122.365563 297 33ft 127kts
13-Sep-20 18:58 37.622211 -122.384463 265 19ft 14kts
13-Sep-20 18:59 37.621767 -122.386911 278 19ft 14kts
13-Sep-20 19:00 37.621030 -122.391879 208 19ft 15kts
13-Sep-20 19:01 37.620206 -122.390146 29 19ft 2kts
13-Sep-20 19:02 37.620428 -122.389988 29 19ft 0kts
13-Sep-20 19:03 37.620428 -122.389988 29 19ft 0kts

Navigation Log

Ident Type
Flight plan parsing failed, navigation log unavailable